Buena Vista, Wisconsin
Current Conditions -  °F | °C
As of 9:55 PM on Tuesday 21 Oct 2014 (Local Time) from KSTE Reporting Station
Clear Clear  
Wind Chill: 32°   Ceiling: Unl
Heat Index: 32°   Visibility: 10mi
Dew Point: 30°   Wind: 0mph
Humidity: 94%   Direction: NA
Pressure: 30.28"   Gusts: NA
Location:  44.4117°N, 89.5378°W
Report Text: KSTE 220255Z AUTO 00000KT 10SM CLR 00/M01 A3028 RMK AO2 60001 T00001009
Loading
Personal Weather Stations






























Interactive Weather Map New forecast layout! Learn more

10-Day Weather Forecast

Advertisements
Track Severe Weather on mobile